Kyle, South Dakota
Current Conditions -  °F | °C
As of 8:52 AM on Monday 26 Jan 2015 (Local Time) from KIEN Reporting Station
Clear Clear  
Wind Chill: 39°   Ceiling: Unl
Heat Index: 43°   Visibility: 10mi
Dew Point: 31°   Wind: 6mph
Humidity: 62%   Direction: 230°SW
Pressure: 30.1"   Gusts: NA
Location:  43.43°N, 102.17°W
Report Text: KIEN 261552Z AUTO 23005KT 10SM CLR 06/M01 A3010 RMK AO2 SLP200 T00611006
Loading
Personal Weather Stations






























Interactive Weather Map New forecast layout! Learn more

10-Day Weather Forecast

Advertisements
Track Severe Weather on mobile